createdAt,value
2018-12-19T00:01:25.787Z,68.60
2018-12-19T00:03:55.430Z,66.53
2018-12-19T00:06:25.083Z,70.00
2018-12-19T00:08:54.689Z,70.42
2018-12-19T00:11:24.371Z,71.65
2018-12-19T00:13:54.068Z,69.40
2018-12-19T00:16:23.588Z,71.67
2018-12-19T00:18:53.170Z,77.60
2018-12-19T00:21:22.903Z,80.32
2018-12-19T00:23:52.645Z,80.17
2018-12-19T00:26:22.202Z,83.47
2018-12-19T00:28:51.895Z,82.27
2018-12-19T00:31:21.590Z,79.60
2018-12-19T00:33:51.275Z,81.32
2018-12-19T00:36:20.835Z,77.93
2018-12-19T00:38:50.447Z,75.57
2018-12-19T00:41:20.036Z,77.17
2018-12-19T00:43:49.613Z,74.75
2018-12-19T00:46:19.156Z,72.00
2018-12-19T00:48:48.735Z,67.20
2018-12-19T00:51:18.433Z,67.00
2018-12-19T00:53:48.012Z,67.00
2018-12-19T00:56:17.640Z,73.27
2018-12-19T00:58:47.233Z,72.42
2018-12-19T01:01:16.807Z,72.43
2018-12-19T01:03:46.725Z,69.47
2018-12-19T01:06:16.525Z,68.37
2018-12-19T01:08:46.187Z,68.07
2018-12-19T01:11:15.762Z,67.70
2018-12-19T01:13:45.376Z,69.60
2018-12-19T01:16:14.948Z,69.00
2018-12-19T01:18:50.076Z,68.80
2018-12-19T01:21:19.712Z,73.20
2018-12-19T01:23:49.255Z,71.13
2018-12-19T01:26:18.889Z,68.80
2018-12-19T01:28:48.480Z,68.60
2018-12-19T01:31:18.084Z,70.92
2018-12-19T01:33:47.634Z,70.33
2018-12-19T01:36:17.229Z,70.20
2018-12-19T01:38:47.076Z,72.87
2018-12-19T01:41:16.597Z,75.17
2018-12-19T01:43:47.104Z,76.20
2018-12-19T01:46:16.819Z,70.95
2018-12-19T01:48:46.560Z,70.43
2018-12-19T01:51:16.150Z,75.83
2018-12-19T01:53:45.984Z,76.57
2018-12-19T01:56:16.016Z,73.20
2018-12-19T01:58:45.705Z,76.00
2018-12-19T02:01:15.357Z,75.23
2018-12-19T02:03:45.348Z,73.13
2018-12-19T02:06:15.773Z,73.50
2018-12-19T02:08:45.296Z,72.63
2018-12-19T02:11:14.909Z,72.83
2018-12-19T02:13:44.679Z,72.70
2018-12-19T02:16:14.306Z,71.17
2018-12-19T02:18:43.823Z,71.63
2018-12-19T02:21:13.335Z,67.80
2018-12-19T02:23:48.319Z,73.57
2018-12-19T02:26:17.994Z,71.87
2018-12-19T02:28:47.606Z,75.87
2018-12-19T02:31:17.545Z,75.25
2018-12-19T02:33:47.709Z,73.60
2018-12-19T02:36:17.485Z,77.03
2018-12-19T02:38:47.002Z,77.57
2018-12-19T02:41:16.558Z,72.83
2018-12-19T02:43:46.129Z,79.20
2018-12-19T02:46:15.872Z,76.23
2018-12-19T02:48:45.350Z,73.70
2018-12-19T02:51:14.925Z,76.00
2018-12-19T02:53:44.526Z,77.07
2018-12-19T02:56:14.054Z,74.60
2018-12-19T02:58:43.607Z,73.33
2018-12-19T03:01:13.145Z,72.10
2018-12-19T03:03:42.892Z,76.03
2018-12-19T03:06:12.490Z,74.30
2018-12-19T03:08:42.381Z,71.13
2018-12-19T03:11:12.684Z,71.70
2018-12-19T03:13:42.483Z,68.67
2018-12-19T03:16:12.087Z,71.43
2018-12-19T03:18:41.681Z,68.90
2018-12-19T03:21:11.265Z,69.63
2018-12-19T03:23:40.781Z,66.60
2018-12-19T03:26:10.326Z,69.80
2018-12-19T03:28:39.913Z,67.47
2018-12-19T03:31:09.454Z,70.00
2018-12-19T03:33:39.192Z,65.07
2018-12-19T03:36:08.879Z,66.77
2018-12-19T03:38:38.481Z,63.90
2018-12-19T03:41:08.039Z,66.73
2018-12-19T03:43:37.660Z,65.63
2018-12-19T03:46:07.256Z,64.70
2018-12-19T03:48:41.963Z,65.67
2018-12-19T03:51:11.659Z,64.47
2018-12-19T03:53:41.711Z,63.10
2018-12-19T03:56:11.340Z,62.17
2018-12-19T03:58:41.036Z,63.80
2018-12-19T04:01:10.742Z,59.67
2018-12-19T04:03:40.351Z,63.70
2018-12-19T04:06:09.987Z,63.48
2018-12-19T04:08:39.771Z,60.95
2018-12-19T04:11:09.408Z,58.92
2018-12-19T04:13:39.090Z,56.75
2018-12-19T04:16:08.720Z,56.92
2018-12-19T04:18:38.335Z,56.53
2018-12-19T04:21:07.957Z,55.30
2018-12-19T04:23:37.507Z,53.65
2018-12-19T04:26:07.097Z,50.80
2018-12-19T04:28:36.609Z,46.95
2018-12-19T04:31:06.251Z,46.08
2018-12-19T04:33:35.753Z,44.20
2018-12-19T04:36:05.729Z,42.30
2018-12-19T04:38:35.516Z,41.98
2018-12-19T04:41:05.196Z,40.47
2018-12-19T04:43:34.703Z,39.03
2018-12-19T04:46:04.422Z,38.83
2018-12-19T04:48:33.982Z,39.10
2018-12-19T04:51:03.527Z,38.63
2018-12-19T04:53:33.246Z,39.03
2018-12-19T04:56:02.908Z,38.37
2018-12-19T04:58:32.549Z,36.73
2018-12-19T05:01:02.114Z,37.80
2018-12-19T05:03:37.323Z,37.93
2018-12-19T05:06:06.908Z,39.23
2018-12-19T05:08:36.424Z,37.00
2018-12-19T05:11:05.937Z,36.20
2018-12-19T05:13:35.465Z,38.60
2018-12-19T05:16:05.165Z,36.57
2018-12-19T05:18:35.671Z,38.33
2018-12-19T05:21:05.571Z,35.97
2018-12-19T05:23:35.298Z,35.48
2018-12-19T05:26:04.824Z,34.83
2018-12-19T05:28:34.531Z,34.75
2018-12-19T05:31:04.043Z,34.10
2018-12-19T05:33:33.636Z,33.83
2018-12-19T05:36:03.273Z,34.27
2018-12-19T05:38:33.798Z,32.60
2018-12-19T05:41:03.452Z,34.00
2018-12-19T05:43:32.999Z,31.17
2018-12-19T05:46:02.603Z,31.40
2018-12-19T05:48:32.124Z,31.40
2018-12-19T05:51:01.710Z,30.97
2018-12-19T05:53:31.248Z,31.57
2018-12-19T05:56:00.878Z,28.60
2018-12-19T05:58:30.573Z,30.60
2018-12-19T06:01:00.231Z,29.50
2018-12-19T06:03:29.866Z,30.50
2018-12-19T06:05:59.462Z,29.23
2018-12-19T06:08:29.094Z,28.97
2018-12-19T06:10:58.679Z,29.20
2018-12-19T06:13:28.494Z,29.80
2018-12-19T06:15:58.636Z,29.40
2018-12-19T06:18:34.149Z,29.10
2018-12-19T06:21:03.768Z,30.40
2018-12-19T06:23:33.381Z,31.47
2018-12-19T06:26:02.877Z,30.07
2018-12-19T06:28:32.432Z,31.10
2018-12-19T06:31:02.221Z,30.73
2018-12-19T06:33:32.698Z,29.30
2018-12-19T06:36:02.376Z,31.70
2018-12-19T06:38:31.902Z,30.33
2018-12-19T06:41:01.551Z,32.43
2018-12-19T06:43:31.078Z,30.20
2018-12-19T06:46:00.743Z,32.07
2018-12-19T06:48:30.276Z,33.73
2018-12-19T06:50:59.776Z,32.00
2018-12-19T06:53:29.301Z,31.90
2018-12-19T06:55:58.860Z,33.80
2018-12-19T06:58:28.423Z,32.60
2018-12-19T07:00:58.077Z,33.73
2018-12-19T07:03:27.631Z,35.50
2018-12-19T07:05:57.907Z,35.30
2018-12-19T07:08:27.529Z,34.00
2018-12-19T07:10:57.162Z,35.70
2018-12-19T07:13:26.869Z,35.10
2018-12-19T07:15:56.629Z,34.73
2018-12-19T07:18:27.212Z,33.00
2018-12-19T07:20:57.595Z,36.17
2018-12-19T07:23:27.063Z,35.00
2018-12-19T07:25:57.106Z,34.60
2018-12-19T07:28:26.785Z,35.17
2018-12-19T07:30:57.372Z,34.70
2018-12-19T07:33:27.015Z,34.87
2018-12-19T07:35:56.581Z,35.70
2018-12-19T07:38:26.312Z,36.97
2018-12-19T07:40:58.516Z,36.50
2018-12-19T07:43:36.319Z,36.13
2018-12-19T07:46:06.068Z,36.40
2018-12-19T07:48:35.930Z,35.60
2018-12-19T07:51:05.433Z,35.50
2018-12-19T07:53:34.950Z,34.87
2018-12-19T07:56:04.469Z,37.80
2018-12-19T07:58:34.021Z,33.77
2018-12-19T08:01:03.639Z,34.93
2018-12-19T08:03:33.139Z,33.97
2018-12-19T08:06:03.026Z,36.13
2018-12-19T08:08:33.363Z,35.63
2018-12-19T08:11:03.225Z,35.80
2018-12-19T08:13:32.741Z,36.77
2018-12-19T08:16:02.309Z,36.50
2018-12-19T08:18:32.006Z,36.50
2018-12-19T08:21:01.492Z,36.53
2018-12-19T08:23:31.126Z,35.20
2018-12-19T08:26:00.616Z,34.33
2018-12-19T08:28:30.472Z,34.30
2018-12-19T08:30:59.992Z,36.67
2018-12-19T08:33:29.760Z,33.93
2018-12-19T08:35:59.396Z,33.20
2018-12-19T08:38:31.211Z,33.30
2018-12-19T08:41:02.793Z,31.30
2018-12-19T08:43:32.582Z,32.30
2018-12-19T08:46:02.656Z,32.70
2018-12-19T08:48:32.248Z,31.67
2018-12-19T08:51:01.786Z,34.60
2018-12-19T08:53:31.577Z,31.20
2018-12-19T08:56:01.240Z,31.33
2018-12-19T08:58:30.764Z,34.10
2018-12-19T09:01:00.287Z,32.40
2018-12-19T09:03:29.919Z,31.07
2018-12-19T09:05:59.459Z,34.17
2018-12-19T09:08:29.014Z,33.77
2018-12-19T09:11:05.463Z,34.60
2018-12-19T09:13:30.451Z,32.63
2018-12-19T09:15:59.935Z,30.97
2018-12-19T09:18:29.421Z,31.50
2018-12-19T09:20:59.143Z,31.57
2018-12-19T09:23:28.623Z,31.43
2018-12-19T09:25:58.465Z,31.40
2018-12-19T09:28:27.979Z,32.17
2018-12-19T09:30:57.658Z,31.50
2018-12-19T09:33:27.650Z,31.77
2018-12-19T09:35:57.503Z,32.23
2018-12-19T09:38:27.015Z,32.73
2018-12-19T09:40:56.615Z,31.20
2018-12-19T09:43:26.154Z,32.73
2018-12-19T09:45:55.751Z,37.10
2018-12-19T09:48:25.234Z,32.60
2018-12-19T09:50:54.681Z,33.30
2018-12-19T09:53:24.716Z,34.07
2018-12-19T09:55:54.405Z,34.70
2018-12-19T09:58:24.097Z,30.80
2018-12-19T10:00:54.013Z,34.90
2018-12-19T10:03:23.508Z,30.37
2018-12-19T10:05:53.280Z,32.97
2018-12-19T10:08:22.871Z,34.47
2018-12-19T10:10:52.460Z,35.17
2018-12-19T10:13:22.452Z,33.70
2018-12-19T10:15:52.063Z,35.17
2018-12-19T10:18:21.695Z,32.40
2018-12-19T10:20:51.160Z,32.73
2018-12-19T10:23:20.809Z,34.33
2018-12-19T10:25:54.426Z,32.27
2018-12-19T10:28:29.020Z,34.03
2018-12-19T10:30:58.952Z,33.00
2018-12-19T10:33:29.360Z,31.60
2018-12-19T10:35:58.981Z,31.80
2018-12-19T10:38:28.429Z,31.83
2018-12-19T10:40:57.967Z,33.20
2018-12-19T10:43:27.703Z,32.27
2018-12-19T10:45:57.211Z,35.70
2018-12-19T10:48:26.686Z,33.00
2018-12-19T10:50:56.157Z,33.10
2018-12-19T10:53:25.746Z,34.00
2018-12-19T10:55:55.260Z,33.70
2018-12-19T10:58:24.871Z,33.70
2018-12-19T11:01:00.573Z,35.73
2018-12-19T11:03:30.190Z,34.73
2018-12-19T11:06:00.002Z,32.70
2018-12-19T11:08:29.584Z,32.80
2018-12-19T11:10:59.263Z,31.40
2018-12-19T11:13:29.375Z,31.23
2018-12-19T11:15:59.140Z,32.43
2018-12-19T11:18:28.657Z,34.33
2018-12-19T11:20:58.555Z,32.93
2018-12-19T11:23:28.125Z,33.20
2018-12-19T11:25:57.847Z,33.87
2018-12-19T11:28:27.391Z,32.80
2018-12-19T11:30:56.934Z,32.23
2018-12-19T11:33:26.530Z,32.10
2018-12-19T11:35:56.073Z,33.27
2018-12-19T11:38:25.543Z,34.20
2018-12-19T11:40:55.076Z,33.13
2018-12-19T11:43:24.525Z,32.33
2018-12-19T11:45:54.043Z,31.13
2018-12-19T11:48:23.674Z,31.87
2018-12-19T11:50:53.241Z,32.00
2018-12-19T11:53:22.815Z,31.40
2018-12-19T11:55:52.279Z,31.07
2018-12-19T11:58:21.935Z,31.37
2018-12-19T12:00:51.536Z,32.47
2018-12-19T12:03:20.995Z,30.20
2018-12-19T12:05:50.716Z,31.67
2018-12-19T12:08:21.073Z,29.33
2018-12-19T12:10:50.602Z,31.10
2018-12-19T12:13:20.074Z,30.43
2018-12-19T12:15:49.767Z,29.07
2018-12-19T12:18:19.251Z,29.70
2018-12-19T12:20:48.788Z,27.73
2018-12-19T12:23:18.439Z,27.13
2018-12-19T12:25:48.060Z,28.37
2018-12-19T12:28:17.608Z,27.70
2018-12-19T12:30:47.156Z,26.23
2018-12-19T12:33:16.722Z,27.97
2018-12-19T12:35:46.586Z,26.07
2018-12-19T12:38:16.357Z,26.13
2018-12-19T12:40:45.941Z,25.83
2018-12-19T12:43:15.528Z,25.07
2018-12-19T12:45:45.004Z,26.10
2018-12-19T12:48:14.537Z,26.40
2018-12-19T12:50:44.020Z,25.67
2018-12-19T12:53:14.008Z,26.07
2018-12-19T12:55:43.543Z,25.40
2018-12-19T12:58:13.281Z,27.37
2018-12-19T13:00:42.833Z,25.27
2018-12-19T13:03:12.266Z,24.50
2018-12-19T13:05:41.911Z,25.00
2018-12-19T13:08:11.419Z,24.10
2018-12-19T13:10:40.889Z,24.27
2018-12-19T13:13:10.433Z,25.40
2018-12-19T13:15:44.009Z,23.17
2018-12-19T13:18:14.677Z,24.00
2018-12-19T13:20:44.659Z,22.90
2018-12-19T13:23:15.348Z,23.50
2018-12-19T13:25:45.351Z,23.47
2018-12-19T13:28:15.006Z,22.60
2018-12-19T13:30:44.516Z,22.73
2018-12-19T13:33:14.068Z,21.50
2018-12-19T13:35:43.840Z,21.00
2018-12-19T13:38:13.425Z,20.93
2018-12-19T13:40:44.774Z,20.13
2018-12-19T13:43:14.283Z,19.53
2018-12-19T13:45:44.691Z,19.93
2018-12-19T13:48:15.178Z,19.70
2018-12-19T13:50:44.657Z,19.97
2018-12-19T13:53:14.287Z,19.97
2018-12-19T13:55:43.819Z,16.70
2018-12-19T13:58:13.295Z,17.97
2018-12-19T14:00:42.758Z,17.97
2018-12-19T14:03:12.375Z,18.47
2018-12-19T14:05:41.883Z,17.80
2018-12-19T14:08:11.497Z,16.00
2018-12-19T14:10:41.158Z,17.70
2018-12-19T14:13:10.804Z,16.40
2018-12-19T14:15:40.412Z,16.17
2018-12-19T14:18:10.569Z,16.47
2018-12-19T14:20:41.591Z,16.73
2018-12-19T14:23:12.012Z,17.13
2018-12-19T14:25:41.601Z,15.80
2018-12-19T14:28:11.203Z,18.33
2018-12-19T14:30:40.931Z,15.10
2018-12-19T14:33:10.544Z,16.60
2018-12-19T14:35:40.735Z,16.43
2018-12-19T14:38:10.318Z,14.77
2018-12-19T14:40:40.360Z,16.23
2018-12-19T14:43:09.974Z,15.37
2018-12-19T14:45:39.570Z,16.00
2018-12-19T14:48:10.880Z,16.20
2018-12-19T14:50:40.707Z,16.07
2018-12-19T14:53:10.279Z,15.03
2018-12-19T14:55:40.184Z,14.03
2018-12-19T14:58:12.703Z,15.27
2018-12-19T15:00:42.159Z,17.40
2018-12-19T15:03:11.975Z,15.47
2018-12-19T15:05:41.431Z,15.70
2018-12-19T15:08:10.942Z,17.47
2018-12-19T15:10:42.064Z,16.80
2018-12-19T15:13:11.569Z,19.13
2018-12-19T15:15:43.162Z,33.60
2018-12-19T15:18:12.668Z,24.37
2018-12-19T15:20:42.648Z,20.77
2018-12-19T15:23:16.396Z,34.40
2018-12-19T15:25:46.140Z,26.87
2018-12-19T15:28:15.682Z,22.87
2018-12-19T15:30:45.663Z,21.70
2018-12-19T15:33:15.184Z,22.83
2018-12-19T15:35:45.537Z,24.23
2018-12-19T15:38:15.081Z,24.70
2018-12-19T15:40:45.808Z,23.50
2018-12-19T15:43:15.268Z,24.27
2018-12-19T15:45:44.761Z,25.70
2018-12-19T15:48:14.356Z,25.80
2018-12-19T15:50:44.827Z,24.67
2018-12-19T15:53:15.006Z,27.27
2018-12-19T15:55:44.572Z,24.87
2018-12-19T15:58:14.072Z,27.30
2018-12-19T16:00:43.553Z,26.17
2018-12-19T16:03:13.217Z,26.07
2018-12-19T16:05:42.691Z,26.53
2018-12-19T16:08:12.252Z,27.07
2018-12-19T16:10:41.748Z,26.50
2018-12-19T16:13:11.226Z,25.67
2018-12-19T16:15:40.932Z,27.30
2018-12-19T16:18:10.412Z,28.90
2018-12-19T16:20:40.083Z,27.90
2018-12-19T16:23:09.827Z,28.60
2018-12-19T16:25:39.391Z,31.40
2018-12-19T16:28:08.860Z,26.73
2018-12-19T16:30:38.318Z,29.60
2018-12-19T16:33:08.089Z,29.87
2018-12-19T16:35:37.588Z,28.97
2018-12-19T16:38:07.051Z,30.40
2018-12-19T16:40:36.573Z,31.57
2018-12-19T16:43:06.791Z,31.73
2018-12-19T16:45:36.248Z,34.30
2018-12-19T16:48:05.748Z,34.27
2018-12-19T16:50:35.204Z,33.90
2018-12-19T16:53:04.758Z,34.17
2018-12-19T16:55:34.438Z,35.40
2018-12-19T16:58:03.960Z,35.40
2018-12-19T17:00:33.463Z,37.43
2018-12-19T17:03:02.843Z,37.53
2018-12-19T17:05:32.528Z,38.40
2018-12-19T17:08:02.006Z,36.43
2018-12-19T17:10:31.464Z,36.80
2018-12-19T17:13:01.017Z,37.60
2018-12-19T17:15:38.067Z,38.30
2018-12-19T17:18:07.764Z,36.80
2018-12-19T17:20:37.177Z,36.30
2018-12-19T17:23:06.711Z,36.53
2018-12-19T17:25:36.075Z,37.27
2018-12-19T17:28:05.446Z,36.80
2018-12-19T17:30:34.979Z,35.20
2018-12-19T17:33:04.403Z,35.27
2018-12-19T17:35:33.776Z,34.30
2018-12-19T17:38:03.096Z,35.70
2018-12-19T17:40:32.579Z,33.90
2018-12-19T17:43:02.143Z,34.20
2018-12-19T17:45:31.510Z,35.30
2018-12-19T17:48:01.049Z,33.57
2018-12-19T17:50:30.446Z,33.97
2018-12-19T17:52:59.810Z,33.67
2018-12-19T17:55:29.258Z,32.60
2018-12-19T17:57:58.676Z,31.60
2018-12-19T18:00:28.531Z,30.30
2018-12-19T18:02:57.976Z,30.23
2018-12-19T18:05:28.060Z,30.30
2018-12-19T18:07:58.043Z,31.60
2018-12-19T18:10:28.620Z,31.47
2018-12-19T18:12:58.038Z,29.70
2018-12-19T18:15:27.645Z,30.93
2018-12-19T18:17:57.031Z,28.80
2018-12-19T18:20:26.988Z,28.37
2018-12-19T18:22:56.541Z,27.23
2018-12-19T18:25:25.952Z,27.10
2018-12-19T18:27:56.173Z,27.10
2018-12-19T18:30:30.864Z,25.57
2018-12-19T18:33:00.852Z,23.80
2018-12-19T18:35:30.531Z,23.27
2018-12-19T18:37:59.900Z,22.47
2018-12-19T18:40:29.462Z,23.50
2018-12-19T18:42:59.105Z,20.57
2018-12-19T18:45:28.797Z,20.13
2018-12-19T18:47:58.311Z,22.40
2018-12-19T18:50:28.088Z,21.50
2018-12-19T18:52:57.626Z,20.27
2018-12-19T18:55:27.157Z,20.43
2018-12-19T18:57:57.125Z,20.67
2018-12-19T19:00:34.823Z,20.93
2018-12-19T19:03:04.543Z,20.27
2018-12-19T19:05:34.350Z,22.07
2018-12-19T19:08:06.170Z,23.50
2018-12-19T19:10:36.807Z,20.40
2018-12-19T19:13:06.473Z,20.93
2018-12-19T19:15:36.112Z,20.40
2018-12-19T19:18:05.482Z,21.13
2018-12-19T19:20:34.870Z,20.67
2018-12-19T19:23:04.336Z,21.60
2018-12-19T19:25:33.920Z,22.20
2018-12-19T19:28:03.251Z,22.27
2018-12-19T19:30:32.718Z,22.57
2018-12-19T19:33:02.210Z,20.73
2018-12-19T19:35:37.228Z,19.93
2018-12-19T19:38:06.588Z,20.73
2018-12-19T19:40:36.145Z,21.47
2018-12-19T19:43:05.689Z,20.20
2018-12-19T19:45:47.700Z,19.97
2018-12-19T19:48:17.494Z,19.90
2018-12-19T19:50:46.915Z,19.77
2018-12-19T19:53:16.471Z,18.80
2018-12-19T19:55:46.181Z,18.30
2018-12-19T19:58:15.666Z,19.80
2018-12-19T20:00:45.097Z,19.20
2018-12-19T20:03:14.563Z,19.87
2018-12-19T20:05:44.508Z,19.97
2018-12-19T20:08:14.089Z,19.20
2018-12-19T20:10:43.573Z,19.03
2018-12-19T20:13:13.079Z,18.90
2018-12-19T20:15:42.670Z,18.73
2018-12-19T20:18:13.493Z,18.70
2018-12-19T20:20:43.022Z,18.80
2018-12-19T20:23:12.627Z,20.13
2018-12-19T20:25:42.182Z,19.60
2018-12-19T20:28:11.645Z,20.53
2018-12-19T20:30:41.160Z,19.93
2018-12-19T20:33:10.730Z,21.10
2018-12-19T20:35:40.374Z,20.60
2018-12-19T20:38:09.957Z,20.27
2018-12-19T20:40:39.460Z,21.87
2018-12-19T20:43:09.100Z,21.87
2018-12-19T20:45:38.651Z,23.93
2018-12-19T20:48:08.237Z,22.93
2018-12-19T20:50:37.685Z,21.27
2018-12-19T20:53:07.210Z,22.47
2018-12-19T20:55:37.591Z,24.80
2018-12-19T20:58:07.153Z,23.83
2018-12-19T21:00:36.734Z,25.40
2018-12-19T21:03:06.692Z,26.23
2018-12-19T21:05:36.230Z,25.87
2018-12-19T21:08:05.699Z,25.80
2018-12-19T21:10:35.299Z,25.70
2018-12-19T21:13:04.808Z,25.67
2018-12-19T21:15:34.252Z,26.87
2018-12-19T21:19:06.515Z,26.30
2018-12-19T21:21:35.964Z,26.50
2018-12-19T21:24:05.492Z,26.83
2018-12-19T21:26:34.996Z,25.30
2018-12-19T21:29:04.810Z,24.63
2018-12-19T21:31:34.581Z,26.80
2018-12-19T21:34:04.190Z,26.50
2018-12-19T21:36:35.209Z,25.77
2018-12-19T21:39:08.017Z,25.82
2018-12-19T21:41:37.600Z,26.70
2018-12-19T21:44:07.395Z,26.02
2018-12-19T21:46:37.111Z,25.80
2018-12-19T21:49:06.959Z,26.07
2018-12-19T21:51:36.604Z,25.97
2018-12-19T21:54:06.200Z,26.63
2018-12-19T21:56:35.838Z,27.50
2018-12-19T21:59:05.431Z,26.70
2018-12-19T22:01:35.287Z,28.83
2018-12-19T22:04:05.263Z,26.33
2018-12-19T22:06:35.025Z,28.92
2018-12-19T22:09:08.990Z,29.33
2018-12-19T22:11:38.701Z,29.70
2018-12-19T22:14:08.482Z,28.13
2018-12-19T22:16:43.247Z,29.57
2018-12-19T22:19:12.914Z,30.80
2018-12-19T22:21:43.716Z,29.92
2018-12-19T22:24:13.491Z,30.27
2018-12-19T22:26:43.064Z,30.10
2018-12-19T22:29:12.933Z,32.50
2018-12-19T22:31:42.554Z,30.70
2018-12-19T22:34:12.431Z,30.65
2018-12-19T22:36:42.081Z,31.83
2018-12-19T22:39:16.028Z,31.97
2018-12-19T22:41:45.615Z,32.43
2018-12-19T22:44:15.359Z,35.20
2018-12-19T22:46:45.127Z,31.57
2018-12-19T22:49:14.768Z,33.00
2018-12-19T22:51:46.112Z,33.25
2018-12-19T22:54:15.839Z,34.43
2018-12-19T22:56:45.693Z,31.47
2018-12-19T22:59:15.259Z,34.25
2018-12-19T23:01:50.104Z,31.93
2018-12-19T23:04:20.035Z,32.33
2018-12-19T23:06:49.684Z,31.65
2018-12-19T23:09:19.426Z,32.20
2018-12-19T23:11:49.348Z,33.92
2018-12-19T23:14:18.916Z,34.03
2018-12-19T23:16:48.583Z,32.77
2018-12-19T23:19:18.222Z,32.83
2018-12-19T23:21:47.863Z,35.08
2018-12-19T23:24:17.393Z,32.50
2018-12-19T23:26:47.212Z,34.60
2018-12-19T23:29:17.009Z,35.63
2018-12-19T23:31:46.644Z,32.70
2018-12-19T23:34:16.243Z,31.02
2018-12-19T23:36:45.824Z,32.80
2018-12-19T23:39:15.454Z,30.97
2018-12-19T23:41:44.968Z,32.70
2018-12-19T23:44:22.549Z,31.67
2018-12-19T23:46:50.613Z,29.77
2018-12-19T23:49:20.354Z,30.70
2018-12-19T23:51:50.208Z,31.40
2018-12-19T23:54:19.869Z,30.40
2018-12-19T23:56:49.582Z,30.10
2018-12-19T23:59:19.243Z,29.67
